createdAt,value
2022-09-20T00:01:11.198Z,5.40
2022-09-20T00:05:28.433Z,5.40
2022-09-20T00:09:45.635Z,5.10
2022-09-20T00:14:05.962Z,6.20
2022-09-20T00:18:23.529Z,8.52
2022-09-20T00:22:40.718Z,9.15
2022-09-20T00:26:58.122Z,11.57
2022-09-20T00:31:15.728Z,11.95
2022-09-20T00:35:33.094Z,10.18
2022-09-20T00:39:50.311Z,8.65
2022-09-20T00:44:43.113Z,9.25
2022-09-20T00:49:08.181Z,8.85
2022-09-20T00:53:29.032Z,6.68
2022-09-20T00:57:47.025Z,11.52
2022-09-20T01:02:15.900Z,10.10
2022-09-20T01:06:34.346Z,6.07
2022-09-20T01:10:52.602Z,6.75
2022-09-20T01:15:10.824Z,10.27
2022-09-20T01:19:43.179Z,5.37
2022-09-20T01:24:11.802Z,9.02
2022-09-20T01:28:30.160Z,7.05
2022-09-20T01:32:54.376Z,10.38
2022-09-20T01:37:51.352Z,14.40
2022-09-20T01:42:12.943Z,9.35
2022-09-20T01:46:35.202Z,9.35
2022-09-20T01:51:10.971Z,6.43
2022-09-20T01:55:57.692Z,7.55
2022-09-20T02:00:25.994Z,16.45
2022-09-20T02:05:18.419Z,8.05
2022-09-20T02:10:00.890Z,7.18
2022-09-20T02:14:34.707Z,4.32
2022-09-20T02:19:29.422Z,7.15
2022-09-20T02:23:58.261Z,5.68
2022-09-20T02:28:31.090Z,11.52
2022-09-20T02:33:13.132Z,9.40
2022-09-20T02:37:45.406Z,13.85
2022-09-20T02:42:08.691Z,6.03
2022-09-20T02:46:41.142Z,6.18
2022-09-20T02:51:22.887Z,8.82
2022-09-20T02:56:19.591Z,7.10
2022-09-20T03:01:12.846Z,8.70
2022-09-20T03:05:58.240Z,9.18
2022-09-20T03:10:46.453Z,14.15
2022-09-20T03:15:28.657Z,7.53
2022-09-20T03:20:06.810Z,9.48
2022-09-20T03:24:51.598Z,9.32
2022-09-20T03:29:18.022Z,10.05
2022-09-20T03:33:52.305Z,11.10
2022-09-20T03:38:44.401Z,12.02
2022-09-20T03:43:36.673Z,7.80
2022-09-20T03:48:19.086Z,9.82
2022-09-20T03:52:39.319Z,9.63
2022-09-20T03:57:21.417Z,14.93
2022-09-20T04:02:14.363Z,13.75
2022-09-20T04:07:05.702Z,15.93
2022-09-20T04:11:42.715Z,13.00
2022-09-20T04:16:20.500Z,11.60
2022-09-20T04:20:46.935Z,12.93
2022-09-20T04:25:17.108Z,13.98
2022-09-20T04:29:49.606Z,13.98
2022-09-20T04:34:17.100Z,14.60
2022-09-20T04:38:35.749Z,14.43
2022-09-20T04:43:27.155Z,17.88
2022-09-20T04:48:05.569Z,19.17
2022-09-20T04:52:53.612Z,24.08
2022-09-20T04:57:39.798Z,17.05
2022-09-20T05:02:27.649Z,13.80
2022-09-20T05:07:19.435Z,22.10
2022-09-20T05:12:03.826Z,25.02
2022-09-20T05:16:52.949Z,21.15
2022-09-20T05:21:50.140Z,14.33
2022-09-20T05:26:42.056Z,18.85
2022-09-20T05:31:05.143Z,24.73
2022-09-20T05:35:43.925Z,28.20
2022-09-20T05:40:31.653Z,21.03
2022-09-20T05:45:42.370Z,19.08
2022-09-20T05:50:36.308Z,18.92
2022-09-20T05:55:23.178Z,22.50
2022-09-20T06:00:15.298Z,29.15
2022-09-20T06:05:00.220Z,16.88
2022-09-20T06:09:45.095Z,18.45
2022-09-20T06:14:20.033Z,20.50
2022-09-20T06:18:46.077Z,17.70
2022-09-20T06:23:05.578Z,13.07
2022-09-20T06:27:54.775Z,14.13
2022-09-20T06:32:17.037Z,13.03
2022-09-20T06:36:55.505Z,15.35
2022-09-20T06:41:28.691Z,14.05
2022-09-20T06:45:45.926Z,14.60
2022-09-20T06:50:03.416Z,14.30
2022-09-20T06:54:22.149Z,15.48
2022-09-20T07:02:56.743Z,23.17
2022-09-20T07:07:19.243Z,17.63
2022-09-20T07:11:36.386Z,17.27
2022-09-20T07:16:04.089Z,18.55
2022-09-20T07:20:21.848Z,13.88
2022-09-20T07:24:41.163Z,13.35
2022-09-20T07:29:00.101Z,18.13
2022-09-20T07:33:21.486Z,18.35
2022-09-20T07:37:41.314Z,18.25
2022-09-20T07:41:58.568Z,13.60
2022-09-20T07:46:15.758Z,12.32
2022-09-20T07:50:37.254Z,18.58
2022-09-20T07:54:54.393Z,12.00
2022-09-20T07:59:12.190Z,15.65
2022-09-20T08:03:31.303Z,18.27
2022-09-20T08:07:48.479Z,18.80
2022-09-20T08:16:46.424Z,31.95
2022-09-20T08:21:08.575Z,16.23
2022-09-20T08:25:25.803Z,21.13
2022-09-20T08:29:42.966Z,22.10
2022-09-20T08:34:03.707Z,15.52
2022-09-20T08:43:00.449Z,21.48
2022-09-20T08:47:25.774Z,19.90
2022-09-20T08:51:48.519Z,17.50
2022-09-20T08:56:06.625Z,18.00
2022-09-20T09:00:33.896Z,14.52
2022-09-20T09:04:53.817Z,18.15
2022-09-20T09:09:20.818Z,17.08
2022-09-20T09:13:56.645Z,16.70
2022-09-20T09:18:13.881Z,13.07
2022-09-20T09:23:05.100Z,12.02
2022-09-20T09:27:22.876Z,14.75
2022-09-20T09:31:40.309Z,19.27
2022-09-20T09:36:22.566Z,13.40
2022-09-20T09:40:53.743Z,14.35
2022-09-20T09:45:13.467Z,19.15
2022-09-20T09:49:35.992Z,22.10
2022-09-20T09:53:55.136Z,21.75
2022-09-20T09:58:57.619Z,22.40
2022-09-20T10:03:51.844Z,19.33
2022-09-20T10:08:20.858Z,20.52
2022-09-20T10:12:56.912Z,16.23
2022-09-20T10:17:48.745Z,17.38
2022-09-20T10:22:24.754Z,14.15
2022-09-20T10:27:09.036Z,14.43
2022-09-20T10:31:48.101Z,12.30
2022-09-20T10:36:34.071Z,14.10
2022-09-20T10:41:22.655Z,13.05
2022-09-20T10:50:45.947Z,9.55
2022-09-20T10:55:33.634Z,9.63
2022-09-20T11:00:02.652Z,9.90
2022-09-20T11:04:34.614Z,9.18
2022-09-20T11:08:56.343Z,7.78
2022-09-20T11:13:22.393Z,11.65
2022-09-20T11:17:46.613Z,10.93
2022-09-20T11:22:16.957Z,14.10
2022-09-20T11:26:52.655Z,21.45
2022-09-20T11:31:24.597Z,15.25
2022-09-20T11:36:04.340Z,13.65
2022-09-20T11:40:35.223Z,15.85
2022-09-20T11:44:56.838Z,11.50
2022-09-20T11:49:21.137Z,12.52
2022-09-20T11:53:50.250Z,9.13
2022-09-20T11:58:11.234Z,10.23
2022-09-20T12:02:41.821Z,11.70
2022-09-20T12:07:18.058Z,13.60
2022-09-20T12:11:41.956Z,10.13
2022-09-20T12:16:35.160Z,9.02
2022-09-20T12:20:55.693Z,9.27
2022-09-20T12:25:35.924Z,7.30
2022-09-20T12:29:59.305Z,6.80
2022-09-20T12:34:19.197Z,5.75
2022-09-20T12:38:38.467Z,9.38
2022-09-20T12:42:59.115Z,4.57
2022-09-20T12:47:22.526Z,1.73
2022-09-20T12:51:59.105Z,3.75
2022-09-20T12:56:22.457Z,2.03
2022-09-20T13:01:01.171Z,1.67
2022-09-20T13:05:39.465Z,3.17
2022-09-20T13:09:57.484Z,2.97
2022-09-20T13:14:32.506Z,4.75
2022-09-20T13:19:29.522Z,4.32
2022-09-20T13:23:52.345Z,4.97
2022-09-20T13:28:21.401Z,4.82
2022-09-20T13:32:41.778Z,4.00
2022-09-20T13:36:59.369Z,4.18
2022-09-20T13:41:18.886Z,5.13
2022-09-20T13:45:36.854Z,5.78
2022-09-20T13:50:03.339Z,5.95
2022-09-20T13:54:27.557Z,4.45
2022-09-20T13:58:44.994Z,4.30
2022-09-20T14:03:02.284Z,4.32
2022-09-20T14:07:20.000Z,4.35
2022-09-20T14:11:38.089Z,6.78
2022-09-20T14:15:55.689Z,7.57
2022-09-20T14:20:17.213Z,5.43
2022-09-20T14:24:37.214Z,3.63
2022-09-20T14:28:55.216Z,4.47
2022-09-20T14:33:19.450Z,3.55
2022-09-20T14:37:49.770Z,2.70
2022-09-20T14:42:29.548Z,2.30
2022-09-20T14:51:16.568Z,2.40
2022-09-20T14:55:37.937Z,1.95
2022-09-20T14:59:59.367Z,1.42
2022-09-20T15:04:22.332Z,4.45
2022-09-20T15:08:45.598Z,2.72
2022-09-20T15:13:04.165Z,6.00
2022-09-20T15:17:21.980Z,4.75
2022-09-20T15:21:39.608Z,5.00
2022-09-20T15:25:57.005Z,6.40
2022-09-20T15:30:17.244Z,5.80
2022-09-20T15:34:34.455Z,5.25
2022-09-20T15:38:54.003Z,7.03
2022-09-20T15:43:16.421Z,5.75
2022-09-20T15:47:33.887Z,9.73
2022-09-20T15:51:51.499Z,5.53
2022-09-20T15:56:16.958Z,3.92
2022-09-20T16:00:34.218Z,5.28
2022-09-20T16:04:54.706Z,5.40
2022-09-20T16:09:12.683Z,7.80
2022-09-20T16:13:30.062Z,7.63
2022-09-20T16:18:05.826Z,5.90
2022-09-20T16:22:23.513Z,5.40
2022-09-20T16:26:41.044Z,4.97
2022-09-20T16:31:00.071Z,3.85
2022-09-20T16:35:17.700Z,8.02
2022-09-20T16:39:34.972Z,4.93
2022-09-20T16:43:53.071Z,3.95
2022-09-20T16:48:11.704Z,7.10
2022-09-20T16:52:28.936Z,6.10
2022-09-20T16:56:48.415Z,5.80
2022-09-20T17:01:07.046Z,7.82
2022-09-20T17:05:24.444Z,10.52
2022-09-20T17:09:41.644Z,6.97
2022-09-20T17:14:00.086Z,5.88
2022-09-20T17:18:17.289Z,6.18
2022-09-20T17:22:34.558Z,4.88
2022-09-20T17:26:52.086Z,6.07
2022-09-20T17:31:12.088Z,7.78
2022-09-20T17:35:35.416Z,6.13
2022-09-20T17:39:52.647Z,6.78
2022-09-20T17:44:11.780Z,11.25
2022-09-20T17:48:30.893Z,9.18
2022-09-20T17:52:48.080Z,11.52
2022-09-20T17:57:05.628Z,9.90
2022-09-20T18:01:23.240Z,9.02
2022-09-20T18:05:42.842Z,7.43
2022-09-20T18:10:00.470Z,14.15
2022-09-20T18:14:20.408Z,18.58
2022-09-20T18:18:39.877Z,21.42
2022-09-20T18:22:57.228Z,19.23
2022-09-20T18:27:14.493Z,39.47
2022-09-20T18:31:33.400Z,18.92
2022-09-20T18:35:50.612Z,22.73
2022-09-20T18:40:08.540Z,18.52
2022-09-20T18:44:27.548Z,32.20
2022-09-20T18:48:47.197Z,36.65
2022-09-20T18:53:04.389Z,34.38
2022-09-20T18:57:22.139Z,13.80
2022-09-20T19:01:54.979Z,15.30
2022-09-20T19:06:13.834Z,19.90
2022-09-20T19:10:50.543Z,15.95
2022-09-20T19:15:22.867Z,33.90
2022-09-20T19:20:04.188Z,24.10
2022-09-20T19:24:46.391Z,16.25
2022-09-20T19:29:10.077Z,16.90
2022-09-20T19:33:29.494Z,25.80
2022-09-20T19:38:24.036Z,17.90
2022-09-20T19:43:15.725Z,24.05
2022-09-20T19:47:38.844Z,33.78
2022-09-20T19:51:57.755Z,29.40
2022-09-20T19:56:29.580Z,25.67
2022-09-20T20:00:47.603Z,25.48
2022-09-20T20:05:05.511Z,19.80
2022-09-20T20:09:31.207Z,21.67
2022-09-20T20:14:07.863Z,14.02
2022-09-20T20:18:47.265Z,14.63
2022-09-20T20:23:41.422Z,15.77
2022-09-20T20:27:58.620Z,21.17
2022-09-20T20:32:16.218Z,27.88
2022-09-20T20:36:33.457Z,15.13
2022-09-20T20:40:58.978Z,25.63
2022-09-20T20:45:16.143Z,14.52
2022-09-20T20:49:33.742Z,12.77
2022-09-20T20:53:53.880Z,14.48
2022-09-20T20:58:11.582Z,10.90
2022-09-20T21:02:28.842Z,14.23
2022-09-20T21:06:46.491Z,15.43
2022-09-20T21:11:06.666Z,11.27
2022-09-20T21:15:23.892Z,10.68
2022-09-20T21:19:41.183Z,19.05
2022-09-20T21:24:00.286Z,12.95
2022-09-20T21:28:17.655Z,18.08
2022-09-20T21:32:35.045Z,13.45
2022-09-20T21:36:52.362Z,14.65
2022-09-20T21:41:15.415Z,12.25
2022-09-20T21:45:33.516Z,9.18
2022-09-20T21:49:50.809Z,10.35
2022-09-20T21:54:08.695Z,13.40
2022-09-20T21:58:26.659Z,13.47
2022-09-20T22:02:43.838Z,15.87
2022-09-20T22:07:03.914Z,13.45
2022-09-20T22:11:22.563Z,11.55
2022-09-20T22:15:39.746Z,10.27
2022-09-20T22:19:58.155Z,10.27
2022-09-20T22:24:16.187Z,12.95
2022-09-20T22:28:34.021Z,7.33
2022-09-20T22:32:51.405Z,7.43
2022-09-20T22:37:08.556Z,7.75
2022-09-20T22:41:27.581Z,14.02
2022-09-20T22:45:44.795Z,9.45
2022-09-20T22:50:02.052Z,13.43
2022-09-20T22:54:20.469Z,7.90
2022-09-20T22:58:46.817Z,18.05
2022-09-20T23:03:04.074Z,13.55
2022-09-20T23:07:21.327Z,9.65
2022-09-20T23:11:39.565Z,8.23
2022-09-20T23:15:56.892Z,9.45
2022-09-20T23:20:14.276Z,13.93
2022-09-20T23:24:31.488Z,11.95
2022-09-20T23:28:57.350Z,9.55
2022-09-20T23:33:14.651Z,8.15
2022-09-20T23:37:31.838Z,6.70
2022-09-20T23:41:51.300Z,7.78
2022-09-20T23:46:10.752Z,7.68
2022-09-20T23:50:28.030Z,8.70
2022-09-20T23:54:45.290Z,8.65
2022-09-20T23:59:02.569Z,9.38
